createdAt,value
2022-12-06T00:01:11.551Z,1034.90
2022-12-06T00:03:39.629Z,1039.73
2022-12-06T00:06:10.801Z,1053.20
2022-12-06T00:08:39.341Z,1050.53
2022-12-06T00:11:13.222Z,1050.25
2022-12-06T00:13:46.718Z,1046.45
2022-12-06T00:16:16.133Z,1047.75
2022-12-06T00:18:44.597Z,1042.50
2022-12-06T00:21:21.919Z,1051.05
2022-12-06T00:23:54.765Z,1050.07
2022-12-06T00:26:22.937Z,1052.28
2022-12-06T00:28:53.593Z,1054.35
2022-12-06T00:31:22.972Z,1054.70
2022-12-06T00:33:50.575Z,1022.28
2022-12-06T00:36:19.843Z,1026.90
2022-12-06T00:38:47.132Z,1048.03
2022-12-06T00:41:19.521Z,1055.38
2022-12-06T00:43:47.188Z,1054.97
2022-12-06T00:46:20.362Z,1050.22
2022-12-06T00:48:50.269Z,1054.03
2022-12-06T00:51:18.217Z,1052.97
2022-12-06T00:53:46.214Z,1050.28
2022-12-06T00:56:13.381Z,1047.20
2022-12-06T00:58:40.863Z,994.80
2022-12-06T01:01:29.256Z,1023.63
2022-12-06T01:03:59.106Z,1021.73
2022-12-06T01:06:29.396Z,1036.53
2022-12-06T01:08:58.062Z,1026.68
2022-12-06T01:11:25.838Z,1035.80
2022-12-06T01:13:53.457Z,1022.30
2022-12-06T01:16:26.046Z,1022.00
2022-12-06T01:18:59.052Z,1028.85
2022-12-06T01:21:27.136Z,1022.13
2022-12-06T01:23:54.427Z,1009.25
2022-12-06T01:26:27.467Z,1004.92
2022-12-06T01:28:54.884Z,1012.63
2022-12-06T01:31:22.091Z,1013.83
2022-12-06T01:33:49.014Z,1009.28
2022-12-06T01:36:21.932Z,1014.45
2022-12-06T01:38:51.079Z,996.67
2022-12-06T01:41:19.409Z,1012.53
2022-12-06T01:43:46.605Z,1017.72
2022-12-06T01:46:29.869Z,1010.58
2022-12-06T01:49:09.691Z,1013.70
2022-12-06T01:51:37.106Z,1003.08
2022-12-06T01:54:08.126Z,1006.30
2022-12-06T01:56:35.216Z,999.08
2022-12-06T01:59:02.338Z,1009.92
2022-12-06T02:01:30.743Z,994.10
2022-12-06T02:04:01.659Z,994.90
2022-12-06T02:06:30.778Z,998.88
2022-12-06T02:09:01.023Z,995.58
2022-12-06T02:11:33.512Z,1016.15
2022-12-06T02:14:09.990Z,991.53
2022-12-06T02:16:51.604Z,997.00
2022-12-06T02:19:30.270Z,1007.23
2022-12-06T02:22:28.216Z,1023.25
2022-12-06T02:25:10.493Z,1030.60
2022-12-06T02:28:14.863Z,1030.68
2022-12-06T02:31:25.076Z,1029.10
2022-12-06T02:34:14.324Z,1029.13
2022-12-06T02:37:04.857Z,1036.60
2022-12-06T02:39:46.984Z,1037.57
2022-12-06T02:42:20.090Z,1032.07
2022-12-06T02:45:12.107Z,1029.23
2022-12-06T02:47:39.554Z,1030.05
2022-12-06T02:50:14.317Z,1024.50
2022-12-06T02:52:44.991Z,1033.53
2022-12-06T02:55:13.341Z,1037.70
2022-12-06T02:57:43.242Z,1037.20
2022-12-06T03:00:46.564Z,1027.53
2022-12-06T03:03:29.849Z,1037.15
2022-12-06T03:06:01.474Z,1030.93
2022-12-06T03:08:58.562Z,1041.27
2022-12-06T03:11:31.839Z,1047.07
2022-12-06T03:14:06.904Z,1044.22
2022-12-06T03:16:49.913Z,1045.88
2022-12-06T03:19:16.627Z,1040.40
2022-12-06T03:21:52.638Z,1029.85
2022-12-06T03:24:22.404Z,997.43
2022-12-06T03:26:51.173Z,1013.70
2022-12-06T03:29:22.066Z,1009.50
2022-12-06T03:31:49.885Z,1015.50
2022-12-06T03:34:22.028Z,1014.83
2022-12-06T03:36:50.705Z,1021.40
2022-12-06T03:39:41.690Z,1019.87
2022-12-06T03:42:10.264Z,1010.85
2022-12-06T03:44:37.637Z,1013.30
2022-12-06T03:47:10.947Z,1028.82
2022-12-06T03:49:44.643Z,1026.15
2022-12-06T03:52:11.487Z,1024.33
2022-12-06T03:54:41.957Z,1036.68
2022-12-06T03:57:10.085Z,1042.90
2022-12-06T03:59:38.838Z,1014.30
2022-12-06T04:02:05.827Z,1000.85
2022-12-06T04:04:32.995Z,1005.97
2022-12-06T04:06:59.745Z,1008.42
2022-12-06T04:09:44.986Z,1006.58
2022-12-06T04:12:30.543Z,1008.85
2022-12-06T04:14:57.388Z,1006.35
2022-12-06T04:17:42.574Z,998.38
2022-12-06T04:20:09.706Z,1042.03
2022-12-06T04:22:55.976Z,1036.53
2022-12-06T04:25:22.850Z,1037.75
2022-12-06T04:28:08.126Z,1048.85
2022-12-06T04:30:53.619Z,1034.43
2022-12-06T04:33:39.139Z,1048.68
2022-12-06T04:36:30.956Z,1045.53
2022-12-06T04:38:57.943Z,1035.90
2022-12-06T04:41:43.274Z,1043.05
2022-12-06T04:44:10.343Z,1039.57
2022-12-06T04:46:37.219Z,1047.43
2022-12-06T04:49:04.046Z,1039.28
2022-12-06T04:51:30.823Z,1044.97
2022-12-06T04:53:58.580Z,1041.20
2022-12-06T04:56:25.308Z,1023.67
2022-12-06T04:58:53.303Z,1008.17
2022-12-06T05:01:21.058Z,1010.30
2022-12-06T05:03:47.754Z,998.08
2022-12-06T05:06:14.518Z,1013.92
2022-12-06T05:08:41.205Z,1016.63
2022-12-06T05:11:07.967Z,1031.80
2022-12-06T05:13:35.308Z,1056.03
2022-12-06T05:16:05.767Z,1051.10
2022-12-06T05:18:33.711Z,1042.10
2022-12-06T05:21:20.024Z,1027.22
2022-12-06T05:23:49.617Z,1035.60
2022-12-06T05:26:18.802Z,1031.67
2022-12-06T05:28:46.895Z,1033.05
2022-12-06T05:31:14.818Z,1034.05
2022-12-06T05:33:42.998Z,1019.08
2022-12-06T05:36:18.967Z,1019.57
2022-12-06T05:38:51.126Z,1023.78
2022-12-06T05:41:19.919Z,984.63
2022-12-06T05:43:46.705Z,992.42
2022-12-06T05:46:13.726Z,988.75
2022-12-06T05:48:40.638Z,989.87
2022-12-06T05:51:07.340Z,990.78
2022-12-06T05:53:34.216Z,1002.97
2022-12-06T05:56:06.006Z,996.42
2022-12-06T05:58:32.870Z,1000.88
2022-12-06T06:00:59.593Z,997.30
2022-12-06T06:03:26.617Z,998.72
2022-12-06T06:05:58.114Z,998.33
2022-12-06T06:08:25.094Z,987.17
2022-12-06T06:10:51.817Z,989.97
2022-12-06T06:13:18.589Z,994.75
2022-12-06T06:15:45.500Z,988.23
2022-12-06T06:18:12.154Z,990.55
2022-12-06T06:20:38.930Z,989.22
2022-12-06T06:23:05.611Z,991.70
2022-12-06T06:25:32.327Z,989.95
2022-12-06T06:27:59.146Z,936.27
2022-12-06T06:30:25.902Z,981.80
2022-12-06T06:32:54.696Z,979.20
2022-12-06T06:35:21.526Z,986.40
2022-12-06T06:37:48.256Z,964.08
2022-12-06T06:40:15.154Z,972.03
2022-12-06T06:42:41.938Z,1014.83
2022-12-06T06:45:09.219Z,1007.67
2022-12-06T06:47:36.021Z,1005.70
2022-12-06T06:50:03.033Z,1008.95
2022-12-06T06:52:29.963Z,1017.50
2022-12-06T06:54:56.711Z,1002.95
2022-12-06T06:57:23.463Z,997.55
2022-12-06T06:59:50.284Z,999.03
2022-12-06T07:02:17.691Z,986.73
2022-12-06T07:04:45.289Z,1002.13
2022-12-06T07:07:19.275Z,999.20
2022-12-06T07:09:47.623Z,944.70
2022-12-06T07:12:14.596Z,1005.00
2022-12-06T07:14:41.250Z,995.97
2022-12-06T07:17:08.146Z,997.30
2022-12-06T07:19:35.065Z,959.42
2022-12-06T07:22:01.840Z,957.80
2022-12-06T07:24:28.538Z,953.30
2022-12-06T07:26:56.724Z,883.78
2022-12-06T07:29:23.488Z,934.90
2022-12-06T07:31:50.170Z,929.90
2022-12-06T07:34:16.962Z,955.22
2022-12-06T07:36:43.671Z,957.80
2022-12-06T07:39:14.784Z,969.63
2022-12-06T07:42:01.126Z,954.15
2022-12-06T07:45:03.025Z,953.45
2022-12-06T07:47:41.607Z,922.63
2022-12-06T07:50:17.920Z,930.78
2022-12-06T07:52:46.628Z,931.47
2022-12-06T07:55:14.716Z,906.72
2022-12-06T07:57:43.923Z,885.92
2022-12-06T08:00:16.488Z,934.42
2022-12-06T08:02:43.472Z,938.40
2022-12-06T08:05:10.752Z,924.60
2022-12-06T08:07:37.976Z,919.10
2022-12-06T08:10:05.734Z,932.20
2022-12-06T08:12:32.718Z,933.05
2022-12-06T08:15:00.414Z,1057.90
2022-12-06T08:17:29.979Z,1063.03
2022-12-06T08:19:57.079Z,1064.40
2022-12-06T08:22:24.964Z,1064.18
2022-12-06T08:24:51.784Z,1057.28
2022-12-06T08:27:18.529Z,1050.65
2022-12-06T08:29:48.892Z,1050.60
2022-12-06T08:32:15.647Z,1056.43
2022-12-06T08:34:43.652Z,1054.45
2022-12-06T08:37:11.633Z,1058.68
2022-12-06T08:39:38.342Z,1060.40
2022-12-06T08:42:06.282Z,1067.65
2022-12-06T08:44:34.171Z,1062.63
2022-12-06T08:47:02.502Z,1060.47
2022-12-06T08:49:30.474Z,1060.15
2022-12-06T08:51:58.517Z,1058.40
2022-12-06T08:54:25.569Z,1056.47
2022-12-06T08:56:52.934Z,1060.05
2022-12-06T08:59:20.207Z,1061.22
2022-12-06T09:01:47.462Z,1059.53
2022-12-06T09:04:15.678Z,1053.93
2022-12-06T09:06:43.950Z,1066.07
2022-12-06T09:09:12.067Z,1061.47
2022-12-06T09:11:40.420Z,1064.32
2022-12-06T09:14:09.117Z,1065.53
2022-12-06T09:16:37.987Z,1067.90
2022-12-06T09:19:04.785Z,1061.45
2022-12-06T09:21:32.925Z,1057.45
2022-12-06T09:24:00.246Z,1060.75
2022-12-06T09:26:27.735Z,1062.38
2022-12-06T09:28:55.915Z,1066.80
2022-12-06T09:31:26.448Z,1057.10
2022-12-06T09:33:53.894Z,1059.65
2022-12-06T09:36:29.426Z,1062.60
2022-12-06T09:39:01.849Z,1060.57
2022-12-06T09:41:58.434Z,1057.55
2022-12-06T09:44:40.517Z,1051.32
2022-12-06T09:47:20.599Z,1054.43
2022-12-06T09:49:55.777Z,1062.00
2022-12-06T09:52:59.056Z,1065.80
2022-12-06T09:55:45.086Z,1068.15
2022-12-06T09:58:36.429Z,1068.28
2022-12-06T10:01:11.140Z,1071.75
2022-12-06T10:03:49.687Z,1071.65
2022-12-06T10:06:20.278Z,1075.20
2022-12-06T10:08:55.920Z,1068.22
2022-12-06T10:11:38.627Z,1075.75
2022-12-06T10:14:25.046Z,1066.65
2022-12-06T10:17:12.113Z,1060.90
2022-12-06T10:19:51.089Z,1065.95
2022-12-06T10:22:37.258Z,1065.57
2022-12-06T10:25:16.165Z,1072.13
2022-12-06T10:28:07.890Z,1078.15
2022-12-06T10:30:42.399Z,1079.33
2022-12-06T10:33:46.837Z,1075.82
2022-12-06T10:36:18.017Z,1075.90
2022-12-06T10:38:53.181Z,1078.07
2022-12-06T10:41:28.998Z,1068.07
2022-12-06T10:44:04.594Z,1062.22
2022-12-06T10:47:07.019Z,1062.20
2022-12-06T10:49:52.407Z,1057.32
2022-12-06T10:52:37.667Z,1058.60
2022-12-06T10:55:10.653Z,1062.25
2022-12-06T10:57:43.459Z,1060.97
2022-12-06T11:00:20.302Z,1065.53
2022-12-06T11:03:11.414Z,1082.68
2022-12-06T11:05:48.527Z,1085.70
2022-12-06T11:08:27.379Z,1080.63
2022-12-06T11:10:58.557Z,1068.85
2022-12-06T11:13:37.318Z,1071.53
2022-12-06T11:16:22.002Z,1064.50
2022-12-06T11:18:49.602Z,1066.38
2022-12-06T11:21:37.401Z,1065.65
2022-12-06T11:24:20.135Z,1063.80
2022-12-06T11:26:59.164Z,1067.25
2022-12-06T11:29:25.968Z,1058.22
2022-12-06T11:31:57.496Z,1064.25
2022-12-06T11:34:31.387Z,1059.60
2022-12-06T11:37:00.604Z,1070.63
2022-12-06T11:39:28.760Z,1067.10
2022-12-06T11:41:59.350Z,1066.03
2022-12-06T11:44:29.333Z,1058.30
2022-12-06T11:47:00.186Z,1061.78
2022-12-06T11:49:36.703Z,1054.15
2022-12-06T11:52:25.846Z,1065.35
2022-12-06T11:54:59.062Z,1065.75
2022-12-06T11:57:31.977Z,1064.20
2022-12-06T12:00:20.852Z,1067.05
2022-12-06T12:02:50.842Z,1069.97
2022-12-06T12:05:20.103Z,1060.97
2022-12-06T12:08:00.092Z,1064.43
2022-12-06T12:10:36.004Z,1072.53
2022-12-06T12:13:30.253Z,1074.43
2022-12-06T12:16:03.584Z,1088.18
2022-12-06T12:18:34.065Z,1082.00
2022-12-06T12:21:02.337Z,1077.18
2022-12-06T12:23:42.262Z,1080.30
2022-12-06T12:26:19.260Z,1080.05
2022-12-06T12:29:03.938Z,1070.22
2022-12-06T12:31:31.218Z,1067.75
2022-12-06T12:34:26.143Z,1076.47
2022-12-06T12:36:56.819Z,1077.05
2022-12-06T12:39:39.381Z,1078.10
2022-12-06T12:42:30.022Z,1085.10
2022-12-06T12:45:00.405Z,1078.47
2022-12-06T12:47:27.429Z,1071.43
2022-12-06T12:50:04.893Z,1077.70
2022-12-06T12:52:37.142Z,1070.03
2022-12-06T12:55:13.627Z,1067.10
2022-12-06T12:57:41.647Z,1061.97
2022-12-06T13:00:15.910Z,1058.50
2022-12-06T13:02:44.527Z,1052.40
2022-12-06T13:05:40.683Z,1058.53
2022-12-06T13:08:26.428Z,1055.30
2022-12-06T13:10:59.064Z,1052.88
2022-12-06T13:13:42.778Z,1051.47
2022-12-06T13:16:14.775Z,1038.10
2022-12-06T13:18:46.851Z,1038.45
2022-12-06T13:21:33.779Z,1037.43
2022-12-06T13:24:12.847Z,1042.27
2022-12-06T13:26:57.626Z,1048.78
2022-12-06T13:29:33.915Z,1042.40
2022-12-06T13:32:18.333Z,1037.80
2022-12-06T13:34:50.875Z,1046.63
2022-12-06T13:37:28.797Z,1039.30
2022-12-06T13:39:55.881Z,1034.70
2022-12-06T13:42:42.620Z,1038.35
2022-12-06T13:45:45.633Z,1046.15
2022-12-06T13:48:24.406Z,1059.85
2022-12-06T13:50:56.861Z,1064.88
2022-12-06T13:53:26.221Z,1054.70
2022-12-06T13:56:03.628Z,1052.55
2022-12-06T13:58:38.282Z,1062.65
2022-12-06T14:01:35.458Z,1048.15
2022-12-06T14:04:42.634Z,1043.32
2022-12-06T14:09:43.601Z,1051.68
2022-12-06T14:12:25.032Z,1053.05
2022-12-06T14:15:01.199Z,1041.93
2022-12-06T14:18:01.559Z,1040.57
2022-12-06T14:20:28.899Z,1038.53
2022-12-06T14:22:56.035Z,1047.75
2022-12-06T14:25:28.464Z,1041.40
2022-12-06T14:28:12.800Z,1047.38
2022-12-06T14:30:39.931Z,1043.43
2022-12-06T14:33:23.585Z,1052.30
2022-12-06T14:35:52.744Z,1047.47
2022-12-06T14:38:27.748Z,1033.55
2022-12-06T14:41:13.551Z,1037.27
2022-12-06T14:43:42.209Z,1033.38
2022-12-06T14:46:14.604Z,1053.13
2022-12-06T14:49:00.186Z,1055.15
2022-12-06T14:51:36.152Z,1060.77
2022-12-06T14:54:27.618Z,1049.50
2022-12-06T14:56:54.451Z,1043.40
2022-12-06T15:00:03.018Z,1030.43
2022-12-06T15:02:22.680Z,1038.65
2022-12-06T15:04:49.566Z,1034.35
2022-12-06T15:07:48.858Z,1034.87
2022-12-06T15:10:25.605Z,1039.10
2022-12-06T15:12:55.658Z,1041.30
2022-12-06T15:15:38.973Z,1046.30
2022-12-06T15:18:25.286Z,1050.70
2022-12-06T15:20:53.501Z,1049.70
2022-12-06T15:23:36.440Z,1038.43
2022-12-06T15:26:05.596Z,1040.15
2022-12-06T15:28:34.115Z,1030.10
2022-12-06T15:31:01.464Z,1039.18
2022-12-06T15:33:28.376Z,1039.65
2022-12-06T15:35:55.274Z,1034.45
2022-12-06T15:38:22.997Z,1037.75
2022-12-06T15:40:51.285Z,1039.05
2022-12-06T15:43:25.726Z,1042.90
2022-12-06T15:45:54.246Z,1040.18
2022-12-06T15:48:21.218Z,1027.32
2022-12-06T15:50:49.005Z,1032.18
2022-12-06T15:53:20.350Z,1039.10
2022-12-06T15:55:47.532Z,1039.40
2022-12-06T15:58:14.334Z,1037.38
2022-12-06T16:00:41.175Z,1054.80
2022-12-06T16:03:08.289Z,1043.60
2022-12-06T16:05:35.420Z,1033.60
2022-12-06T16:08:03.696Z,1027.00
2022-12-06T16:11:03.067Z,1053.07
2022-12-06T16:13:23.659Z,1051.00
2022-12-06T16:15:52.458Z,1051.80
2022-12-06T16:18:20.056Z,1055.82
2022-12-06T16:20:47.520Z,1050.83
2022-12-06T16:24:10.949Z,1055.57
2022-12-06T16:26:23.195Z,1050.90
2022-12-06T16:28:49.892Z,1044.38
2022-12-06T16:31:16.702Z,1044.72
2022-12-06T16:33:43.503Z,1048.88
2022-12-06T16:36:17.981Z,1054.93
2022-12-06T16:38:44.809Z,1055.03
2022-12-06T16:41:37.419Z,1039.47
2022-12-06T16:44:05.142Z,1040.50
2022-12-06T16:46:34.683Z,1045.60
2022-12-06T16:49:36.658Z,1054.00
2022-12-06T16:51:49.560Z,1045.63
2022-12-06T16:54:17.307Z,1050.30
2022-12-06T16:56:45.738Z,1045.97
2022-12-06T16:59:15.097Z,1043.33
2022-12-06T17:01:53.401Z,1044.67
2022-12-06T17:04:20.857Z,1053.85
2022-12-06T17:06:48.090Z,1046.85
2022-12-06T17:09:17.128Z,1053.72
2022-12-06T17:12:02.195Z,1060.13
2022-12-06T17:14:29.654Z,1045.57
2022-12-06T17:16:57.041Z,1048.07
2022-12-06T17:19:27.783Z,1053.47
2022-12-06T17:21:55.094Z,1054.15
2022-12-06T17:24:24.314Z,1053.80
2022-12-06T17:26:51.098Z,1060.18
2022-12-06T17:29:17.820Z,1064.05
2022-12-06T17:31:45.009Z,1066.07
2022-12-06T17:34:13.590Z,1070.30
2022-12-06T17:36:40.788Z,1084.18
2022-12-06T17:39:12.966Z,1059.88
2022-12-06T17:41:58.207Z,1055.25
2022-12-06T17:44:24.977Z,1055.27
2022-12-06T17:46:51.935Z,1051.10
2022-12-06T17:49:21.587Z,1043.43
2022-12-06T17:51:48.584Z,1046.45
2022-12-06T17:54:16.217Z,1050.07
2022-12-06T17:56:49.092Z,1045.50
2022-12-06T17:59:19.047Z,1062.20
2022-12-06T18:04:33.259Z,1043.18
2022-12-06T18:06:59.914Z,1050.75
2022-12-06T18:09:26.692Z,1049.10
2022-12-06T18:11:55.527Z,1055.72
2022-12-06T18:14:22.170Z,1047.22
2022-12-06T18:16:50.028Z,1060.60
2022-12-06T18:19:19.433Z,1062.07
2022-12-06T18:21:48.022Z,1057.70
2022-12-06T18:24:27.950Z,1054.13
2022-12-06T18:26:58.589Z,1058.43
2022-12-06T18:29:25.343Z,1056.90
2022-12-06T18:31:52.622Z,1056.95
2022-12-06T18:34:20.175Z,1058.45
2022-12-06T18:36:47.563Z,1060.00
2022-12-06T18:39:16.996Z,1071.60
2022-12-06T18:41:44.867Z,1069.22
2022-12-06T18:44:12.684Z,1060.07
2022-12-06T18:46:42.313Z,1068.63
2022-12-06T18:49:11.408Z,1059.30
2022-12-06T18:51:39.521Z,1063.13
2022-12-06T18:54:07.966Z,1062.60
2022-12-06T18:56:36.831Z,1066.65
2022-12-06T18:59:06.450Z,1074.15
2022-12-06T19:01:35.667Z,1067.20
2022-12-06T19:04:04.079Z,1073.88
2022-12-06T19:06:33.815Z,1073.00
2022-12-06T19:09:08.118Z,1074.73
2022-12-06T19:11:43.647Z,1081.03
2022-12-06T19:14:10.533Z,1072.78
2022-12-06T19:16:39.281Z,1072.03
2022-12-06T19:19:15.449Z,1069.13
2022-12-06T19:21:43.776Z,1072.45
2022-12-06T19:24:12.601Z,1081.57
2022-12-06T19:26:39.678Z,1097.88
2022-12-06T19:29:06.431Z,1087.07
2022-12-06T19:31:33.284Z,1094.63
2022-12-06T19:34:00.732Z,1092.82
2022-12-06T19:36:30.031Z,1097.78
2022-12-06T19:39:04.214Z,1095.15
2022-12-06T19:41:31.609Z,1086.32
2022-12-06T19:44:19.031Z,1082.88
2022-12-06T19:46:47.411Z,1090.88
2022-12-06T19:49:16.274Z,1096.38
2022-12-06T19:51:45.302Z,1097.45
2022-12-06T19:54:16.596Z,1100.13
2022-12-06T19:56:43.549Z,1100.70
2022-12-06T19:59:13.362Z,1101.72
2022-12-06T20:01:43.021Z,1103.22
2022-12-06T20:04:21.065Z,1102.50
2022-12-06T20:06:48.365Z,1096.28
2022-12-06T20:09:17.045Z,1099.30
2022-12-06T20:12:03.755Z,1093.30
2022-12-06T20:14:47.391Z,1100.72
2022-12-06T20:17:19.229Z,1090.00
2022-12-06T20:19:46.579Z,1094.73
2022-12-06T20:22:38.162Z,1083.38
2022-12-06T20:25:05.302Z,1087.50
2022-12-06T20:27:50.821Z,1085.90
2022-12-06T20:30:18.794Z,1086.63
2022-12-06T20:32:46.594Z,1090.05
2022-12-06T20:35:13.499Z,1095.03
2022-12-06T20:37:40.275Z,1093.80
2022-12-06T20:40:08.166Z,1095.57
2022-12-06T20:42:35.191Z,1091.00
2022-12-06T20:45:05.326Z,1098.07
2022-12-06T20:47:33.106Z,1093.75
2022-12-06T20:50:01.241Z,1085.82
2022-12-06T20:52:28.145Z,1082.22
2022-12-06T20:54:55.363Z,1082.22
2022-12-06T20:57:22.736Z,1091.82
2022-12-06T20:59:55.452Z,1087.68
2022-12-06T21:02:22.221Z,1082.20
2022-12-06T21:04:48.964Z,1081.78
2022-12-06T21:07:15.722Z,1080.30
2022-12-06T21:09:42.438Z,1072.97
2022-12-06T21:12:09.453Z,1068.40
2022-12-06T21:14:36.278Z,1082.00
2022-12-06T21:17:03.274Z,1084.67
2022-12-06T21:19:31.039Z,1066.03
2022-12-06T21:22:00.940Z,1084.05
2022-12-06T21:24:27.886Z,1075.35
2022-12-06T21:26:54.521Z,1088.50
2022-12-06T21:29:30.360Z,1082.00
2022-12-06T21:31:59.795Z,1083.03
2022-12-06T21:34:26.562Z,1086.68
2022-12-06T21:36:53.317Z,1084.15
2022-12-06T21:39:20.086Z,1084.35
2022-12-06T21:41:46.874Z,1081.57
2022-12-06T21:44:13.599Z,1082.97
2022-12-06T21:46:40.438Z,1086.13
2022-12-06T21:49:07.234Z,1064.80
2022-12-06T21:51:33.986Z,1066.93
2022-12-06T21:54:01.342Z,1061.90
2022-12-06T21:56:30.587Z,1059.45
2022-12-06T21:59:00.999Z,1055.03
2022-12-06T22:01:29.802Z,1035.20
2022-12-06T22:03:58.942Z,1053.38
2022-12-06T22:06:26.125Z,1059.10
2022-12-06T22:09:01.640Z,1053.63
2022-12-06T22:11:29.929Z,1045.80
2022-12-06T22:13:58.307Z,1032.03
2022-12-06T22:16:25.491Z,1029.72
2022-12-06T22:18:54.940Z,1036.68
2022-12-06T22:21:25.181Z,1041.45
2022-12-06T22:23:52.528Z,1045.90
2022-12-06T22:26:21.870Z,1048.60
2022-12-06T22:28:49.451Z,1047.50
2022-12-06T22:31:27.259Z,1041.57
2022-12-06T22:33:55.918Z,1051.35
2022-12-06T22:36:23.514Z,1045.55
2022-12-06T22:38:51.769Z,1052.05
2022-12-06T22:41:19.815Z,1052.10
2022-12-06T22:43:50.537Z,1051.60
2022-12-06T22:46:17.722Z,1036.50
2022-12-06T22:48:44.610Z,1036.57
2022-12-06T22:51:12.846Z,1038.15
2022-12-06T22:53:41.673Z,1036.90
2022-12-06T22:56:09.210Z,1042.75
2022-12-06T22:58:36.258Z,1036.93
2022-12-06T23:01:17.461Z,1045.85
2022-12-06T23:03:45.907Z,1048.03
2022-12-06T23:06:15.168Z,1045.95
2022-12-06T23:08:42.524Z,1046.50
2022-12-06T23:11:12.165Z,1043.32
2022-12-06T23:13:39.214Z,1043.22
2022-12-06T23:16:08.835Z,1050.30
2022-12-06T23:18:36.643Z,1062.85
2022-12-06T23:21:10.888Z,1061.03
2022-12-06T23:23:39.190Z,1055.47
2022-12-06T23:26:08.949Z,1057.80
2022-12-06T23:28:36.850Z,1048.80
2022-12-06T23:31:15.574Z,1063.50
2022-12-06T23:33:43.949Z,1069.20
2022-12-06T23:36:16.506Z,1054.15
2022-12-06T23:38:43.500Z,1053.38
2022-12-06T23:41:12.385Z,1056.70
2022-12-06T23:43:40.041Z,1054.25
2022-12-06T23:46:09.822Z,1060.13
2022-12-06T23:48:36.900Z,1079.45
2022-12-06T23:51:10.432Z,1070.35
2022-12-06T23:53:37.386Z,1081.43
2022-12-06T23:56:18.366Z,1082.07
2022-12-06T23:58:46.649Z,1085.00
